sensor_id;sensor_type;location;lat;lon;timestamp;pressure;altitude;pressure_sealevel;temperature;humidity
54948;BME280;41113;41.882;12.530;2023-04-09T00:01:05;101101.66;;;8.23;83.32
54948;BME280;41113;41.882;12.530;2023-04-09T00:03:31;101113.31;;;8.22;83.28
54948;BME280;41113;41.882;12.530;2023-04-09T00:05:56;101107.84;;;8.36;82.71
54948;BME280;41113;41.882;12.530;2023-04-09T00:08:22;101103.84;;;8.42;81.96
54948;BME280;41113;41.882;12.530;2023-04-09T00:10:53;101108.06;;;8.46;81.46
54948;BME280;41113;41.882;12.530;2023-04-09T00:13:19;101107.09;;;8.47;81.30
54948;BME280;41113;41.882;12.530;2023-04-09T00:15:45;101105.16;;;8.49;80.73
54948;BME280;41113;41.882;12.530;2023-04-09T00:18:11;101103.31;;;8.50;80.83
54948;BME280;41113;41.882;12.530;2023-04-09T00:20:37;101103.44;;;8.48;80.73
54948;BME280;41113;41.882;12.530;2023-04-09T00:23:02;101109.66;;;8.49;80.71
54948;BME280;41113;41.882;12.530;2023-04-09T00:25:28;101108.22;;;8.56;80.66
54948;BME280;41113;41.882;12.530;2023-04-09T00:27:54;101122.81;;;8.52;80.60
54948;BME280;41113;41.882;12.530;2023-04-09T00:30:19;101123.03;;;8.49;80.58
54948;BME280;41113;41.882;12.530;2023-04-09T00:32:45;101117.44;;;8.52;80.68
54948;BME280;41113;41.882;12.530;2023-04-09T00:35:11;101122.13;;;8.61;80.20
54948;BME280;41113;41.882;12.530;2023-04-09T00:37:36;101124.75;;;8.50;80.16
54948;BME280;41113;41.882;12.530;2023-04-09T00:40:02;101127.94;;;8.42;80.86
54948;BME280;41113;41.882;12.530;2023-04-09T00:42:34;101123.78;;;8.38;81.03
54948;BME280;41113;41.882;12.530;2023-04-09T00:45:02;101119.63;;;8.34;80.73
54948;BME280;41113;41.882;12.530;2023-04-09T00:47:28;101124.88;;;8.35;81.02
54948;BME280;41113;41.882;12.530;2023-04-09T00:49:54;101119.63;;;8.47;80.76
54948;BME280;41113;41.882;12.530;2023-04-09T00:52:20;101119.16;;;8.53;80.67
54948;BME280;41113;41.882;12.530;2023-04-09T00:54:48;101123.81;;;8.62;79.97
54948;BME280;41113;41.882;12.530;2023-04-09T00:57:14;101117.00;;;8.58;79.47
54948;BME280;41113;41.882;12.530;2023-04-09T00:59:40;101121.44;;;8.70;79.23
54948;BME280;41113;41.882;12.530;2023-04-09T01:02:07;101124.00;;;8.71;78.89
54948;BME280;41113;41.882;12.530;2023-04-09T01:04:32;101125.94;;;8.69;78.85
54948;BME280;41113;41.882;12.530;2023-04-09T01:07:05;101119.25;;;8.75;78.53
54948;BME280;41113;41.882;12.530;2023-04-09T01:09:37;101120.13;;;8.76;78.24
54948;BME280;41113;41.882;12.530;2023-04-09T01:12:16;101132.13;;;8.70;78.00
54948;BME280;41113;41.882;12.530;2023-04-09T01:15:06;101124.44;;;8.65;77.78
54948;BME280;41113;41.882;12.530;2023-04-09T01:17:45;101142.06;;;8.57;78.35
54948;BME280;41113;41.882;12.530;2023-04-09T01:26:06;101139.72;;;8.39;78.75
54948;BME280;41113;41.882;12.530;2023-04-09T01:28:45;101138.88;;;8.39;78.89
54948;BME280;41113;41.882;12.530;2023-04-09T01:31:14;101132.66;;;8.38;79.26
54948;BME280;41113;41.882;12.530;2023-04-09T01:33:41;101138.25;;;8.35;78.94
54948;BME280;41113;41.882;12.530;2023-04-09T01:36:08;101144.00;;;8.29;79.50
54948;BME280;41113;41.882;12.530;2023-04-09T01:38:39;101141.88;;;8.34;79.27
54948;BME280;41113;41.882;12.530;2023-04-09T01:41:06;101135.88;;;8.43;78.97
54948;BME280;41113;41.882;12.530;2023-04-09T01:43:33;101130.72;;;8.53;78.37
54948;BME280;41113;41.882;12.530;2023-04-09T01:46:02;101130.25;;;8.59;77.90
54948;BME280;41113;41.882;12.530;2023-04-09T01:48:29;101135.03;;;8.67;77.92
54948;BME280;41113;41.882;12.530;2023-04-09T01:50:56;101125.59;;;8.74;77.61
54948;BME280;41113;41.882;12.530;2023-04-09T01:53:22;101126.50;;;8.62;77.64
54948;BME280;41113;41.882;12.530;2023-04-09T01:55:48;101132.88;;;8.48;78.57
54948;BME280;41113;41.882;12.530;2023-04-09T01:58:13;101131.09;;;8.23;79.42
54948;BME280;41113;41.882;12.530;2023-04-09T02:00:44;101134.84;;;8.08;80.27
54948;BME280;41113;41.882;12.530;2023-04-09T02:03:22;101129.94;;;8.02;80.49
54948;BME280;41113;41.882;12.530;2023-04-09T02:05:55;101132.31;;;7.94;81.10
54948;BME280;41113;41.882;12.530;2023-04-09T02:08:22;101132.22;;;7.83;81.81
54948;BME280;41113;41.882;12.530;2023-04-09T02:10:55;101133.06;;;7.96;81.41
54948;BME280;41113;41.882;12.530;2023-04-09T02:13:23;101138.19;;;7.99;81.27
54948;BME280;41113;41.882;12.530;2023-04-09T02:15:51;101135.19;;;7.91;81.12
54948;BME280;41113;41.882;12.530;2023-04-09T02:18:24;101129.53;;;7.95;81.38
54948;BME280;41113;41.882;12.530;2023-04-09T02:20:52;101134.22;;;7.92;81.20
54948;BME280;41113;41.882;12.530;2023-04-09T02:23:17;101132.97;;;7.85;81.48
54948;BME280;41113;41.882;12.530;2023-04-09T02:25:43;101130.50;;;7.82;81.30
54948;BME280;41113;41.882;12.530;2023-04-09T02:28:08;101135.06;;;7.79;81.09
54948;BME280;41113;41.882;12.530;2023-04-09T02:30:34;101133.16;;;7.69;81.90
54948;BME280;41113;41.882;12.530;2023-04-09T02:32:59;101134.22;;;7.66;82.17
54948;BME280;41113;41.882;12.530;2023-04-09T02:35:24;101135.31;;;7.64;82.39
54948;BME280;41113;41.882;12.530;2023-04-09T02:37:50;101135.50;;;7.73;82.00
54948;BME280;41113;41.882;12.530;2023-04-09T02:40:15;101129.66;;;7.81;81.46
54948;BME280;41113;41.882;12.530;2023-04-09T02:42:41;101130.59;;;7.93;80.88
54948;BME280;41113;41.882;12.530;2023-04-09T02:45:06;101123.94;;;7.98;80.04
54948;BME280;41113;41.882;12.530;2023-04-09T02:47:34;101124.28;;;7.94;80.62
54948;BME280;41113;41.882;12.530;2023-04-09T02:49:59;101121.94;;;7.89;80.68
54948;BME280;41113;41.882;12.530;2023-04-09T02:52:25;101118.19;;;7.92;80.78
54948;BME280;41113;41.882;12.530;2023-04-09T02:54:52;101124.91;;;7.97;80.43
54948;BME280;41113;41.882;12.530;2023-04-09T02:57:17;101116.88;;;7.97;80.41
54948;BME280;41113;41.882;12.530;2023-04-09T02:59:44;101117.97;;;7.95;80.29
54948;BME280;41113;41.882;12.530;2023-04-09T03:02:09;101117.19;;;8.05;79.90
54948;BME280;41113;41.882;12.530;2023-04-09T03:04:35;101127.25;;;8.02;79.99
54948;BME280;41113;41.882;12.530;2023-04-09T03:07:00;101126.63;;;7.98;80.27
54948;BME280;41113;41.882;12.530;2023-04-09T03:09:25;101128.84;;;8.17;79.86
54948;BME280;41113;41.882;12.530;2023-04-09T03:11:51;101132.91;;;8.10;79.55
54948;BME280;41113;41.882;12.530;2023-04-09T03:14:16;101130.22;;;8.10;79.44
54948;BME280;41113;41.882;12.530;2023-04-09T03:16:42;101129.28;;;8.11;79.59
54948;BME280;41113;41.882;12.530;2023-04-09T03:19:07;101135.47;;;8.24;79.43
54948;BME280;41113;41.882;12.530;2023-04-09T03:21:32;101132.91;;;8.35;78.58
54948;BME280;41113;41.882;12.530;2023-04-09T03:23:57;101130.09;;;8.37;78.26
54948;BME280;41113;41.882;12.530;2023-04-09T03:26:23;101130.50;;;8.43;77.90
54948;BME280;41113;41.882;12.530;2023-04-09T03:28:48;101127.53;;;8.35;77.83
54948;BME280;41113;41.882;12.530;2023-04-09T03:31:13;101133.97;;;8.07;78.58
54948;BME280;41113;41.882;12.530;2023-04-09T03:33:39;101130.16;;;7.99;79.11
54948;BME280;41113;41.882;12.530;2023-04-09T03:36:05;101134.00;;;7.95;79.59
54948;BME280;41113;41.882;12.530;2023-04-09T03:38:30;101135.53;;;7.86;80.17
54948;BME280;41113;41.882;12.530;2023-04-09T03:40:56;101135.00;;;7.81;80.29
54948;BME280;41113;41.882;12.530;2023-04-09T03:43:21;101138.94;;;7.75;80.50
54948;BME280;41113;41.882;12.530;2023-04-09T03:45:46;101136.25;;;7.75;80.42
54948;BME280;41113;41.882;12.530;2023-04-09T03:48:12;101134.53;;;7.74;80.30
54948;BME280;41113;41.882;12.530;2023-04-09T03:50:40;101142.78;;;7.71;80.54
54948;BME280;41113;41.882;12.530;2023-04-09T03:53:07;101143.53;;;7.73;80.64
54948;BME280;41113;41.882;12.530;2023-04-09T03:55:32;101146.84;;;7.90;80.14
54948;BME280;41113;41.882;12.530;2023-04-09T03:57:58;101138.53;;;7.82;80.09
54948;BME280;41113;41.882;12.530;2023-04-09T04:00:23;101155.63;;;7.66;80.21
54948;BME280;41113;41.882;12.530;2023-04-09T04:02:49;101154.44;;;7.58;80.40
54948;BME280;41113;41.882;12.530;2023-04-09T04:05:15;101148.78;;;7.62;80.46
54948;BME280;41113;41.882;12.530;2023-04-09T04:07:40;101149.53;;;7.64;80.25
54948;BME280;41113;41.882;12.530;2023-04-09T04:10:08;101149.63;;;7.63;80.04
54948;BME280;41113;41.882;12.530;2023-04-09T04:12:34;101152.72;;;7.57;80.34
54948;BME280;41113;41.882;12.530;2023-04-09T04:15:00;101153.59;;;7.57;80.15
54948;BME280;41113;41.882;12.530;2023-04-09T04:17:25;101153.69;;;7.68;80.14
54948;BME280;41113;41.882;12.530;2023-04-09T04:19:50;101159.06;;;7.81;79.42
54948;BME280;41113;41.882;12.530;2023-04-09T04:22:16;101150.50;;;7.89;78.87
54948;BME280;41113;41.882;12.530;2023-04-09T04:24:41;101158.63;;;7.87;78.83
54948;BME280;41113;41.882;12.530;2023-04-09T04:27:07;101161.50;;;7.71;79.28
54948;BME280;41113;41.882;12.530;2023-04-09T04:29:32;101158.63;;;7.62;79.72
54948;BME280;41113;41.882;12.530;2023-04-09T04:31:58;101151.97;;;7.55;80.09
54948;BME280;41113;41.882;12.530;2023-04-09T04:34:23;101151.56;;;7.61;80.41
54948;BME280;41113;41.882;12.530;2023-04-09T04:36:48;101155.84;;;7.63;80.18
54948;BME280;41113;41.882;12.530;2023-04-09T04:39:14;101156.59;;;7.65;79.83
54948;BME280;41113;41.882;12.530;2023-04-09T04:41:39;101154.34;;;7.59;80.11
54948;BME280;41113;41.882;12.530;2023-04-09T04:44:05;101156.47;;;7.54;80.19
54948;BME280;41113;41.882;12.530;2023-04-09T04:46:30;101159.34;;;7.64;80.34
54948;BME280;41113;41.882;12.530;2023-04-09T04:48:55;101152.28;;;7.75;80.02
54948;BME280;41113;41.882;12.530;2023-04-09T04:51:21;101166.94;;;7.70;79.84
54948;BME280;41113;41.882;12.530;2023-04-09T04:53:46;101163.31;;;7.71;79.62
54948;BME280;41113;41.882;12.530;2023-04-09T04:56:14;101153.16;;;7.76;79.54
54948;BME280;41113;41.882;12.530;2023-04-09T04:58:40;101158.81;;;7.71;79.85
54948;BME280;41113;41.882;12.530;2023-04-09T05:01:06;101173.94;;;8.60;77.63
54948;BME280;41113;41.882;12.530;2023-04-09T05:03:31;101165.84;;;9.44;73.14
54948;BME280;41113;41.882;12.530;2023-04-09T05:05:57;101176.59;;;10.24;70.29
54948;BME280;41113;41.882;12.530;2023-04-09T05:08:22;101173.28;;;11.08;66.66
54948;BME280;41113;41.882;12.530;2023-04-09T05:10:48;101161.47;;;11.52;64.57
54948;BME280;41113;41.882;12.530;2023-04-09T05:13:13;101161.84;;;11.69;62.72
54948;BME280;41113;41.882;12.530;2023-04-09T05:15:39;101165.81;;;12.06;61.66
54948;BME280;41113;41.882;12.530;2023-04-09T05:18:05;101167.66;;;12.36;59.60
54948;BME280;41113;41.882;12.530;2023-04-09T05:20:32;101169.69;;;12.63;59.93
54948;BME280;41113;41.882;12.530;2023-04-09T05:22:57;101172.09;;;12.66;58.68
54948;BME280;41113;41.882;12.530;2023-04-09T05:25:22;101169.00;;;12.31;59.94
54948;BME280;41113;41.882;12.530;2023-04-09T05:27:48;101171.09;;;11.34;62.46
54948;BME280;41113;41.882;12.530;2023-04-09T05:30:13;101173.53;;;10.51;65.61
54948;BME280;41113;41.882;12.530;2023-04-09T05:32:38;101177.91;;;10.63;67.51
54948;BME280;41113;41.882;12.530;2023-04-09T05:35:04;101175.25;;;10.29;66.70
54948;BME280;41113;41.882;12.530;2023-04-09T05:37:30;101187.81;;;10.40;67.54
54948;BME280;41113;41.882;12.530;2023-04-09T05:39:57;101183.63;;;10.03;68.28
54948;BME280;41113;41.882;12.530;2023-04-09T05:42:22;101184.00;;;9.98;68.43
54948;BME280;41113;41.882;12.530;2023-04-09T05:44:47;101186.41;;;9.79;69.06
54948;BME280;41113;41.882;12.530;2023-04-09T05:47:13;101180.31;;;9.88;68.45
54948;BME280;41113;41.882;12.530;2023-04-09T05:49:38;101185.00;;;10.19;68.37
54948;BME280;41113;41.882;12.530;2023-04-09T05:52:05;101186.84;;;10.52;68.22
54948;BME280;41113;41.882;12.530;2023-04-09T05:54:30;101188.56;;;11.08;67.65
54948;BME280;41113;41.882;12.530;2023-04-09T05:56:55;101191.22;;;11.19;64.29
54948;BME280;41113;41.882;12.530;2023-04-09T05:59:21;101194.06;;;11.59;65.89
54948;BME280;41113;41.882;12.530;2023-04-09T06:01:46;101190.81;;;11.97;61.97
54948;BME280;41113;41.882;12.530;2023-04-09T06:04:12;101200.00;;;12.46;60.57
54948;BME280;41113;41.882;12.530;2023-04-09T06:06:40;101203.72;;;13.14;58.21
54948;BME280;41113;41.882;12.530;2023-04-09T06:09:06;101210.13;;;13.32;56.38
54948;BME280;41113;41.882;12.530;2023-04-09T06:11:31;101206.44;;;12.34;58.83
54948;BME280;41113;41.882;12.530;2023-04-09T06:13:57;101201.69;;;11.22;62.73
54948;BME280;41113;41.882;12.530;2023-04-09T06:16:22;101217.22;;;10.75;64.86
54948;BME280;41113;41.882;12.530;2023-04-09T06:18:48;101211.00;;;11.18;64.01
54948;BME280;41113;41.882;12.530;2023-04-09T06:21:18;101207.03;;;10.90;65.24
54948;BME280;41113;41.882;12.530;2023-04-09T06:23:44;101208.19;;;11.51;63.56
54948;BME280;41113;41.882;12.530;2023-04-09T06:26:09;101209.97;;;12.25;61.63
54948;BME280;41113;41.882;12.530;2023-04-09T06:28:35;101215.63;;;12.52;60.48
54948;BME280;41113;41.882;12.530;2023-04-09T06:31:00;101223.56;;;12.54;59.79
54948;BME280;41113;41.882;12.530;2023-04-09T06:33:26;101230.19;;;12.19;61.30
54948;BME280;41113;41.882;12.530;2023-04-09T06:35:51;101220.97;;;12.42;61.13
54948;BME280;41113;41.882;12.530;2023-04-09T06:38:18;101224.34;;;12.75;59.29
54948;BME280;41113;41.882;12.530;2023-04-09T06:40:43;101225.22;;;12.45;59.96
54948;BME280;41113;41.882;12.530;2023-04-09T06:43:09;101229.22;;;11.99;61.15
54948;BME280;41113;41.882;12.530;2023-04-09T06:45:35;101231.47;;;11.94;61.07
54948;BME280;41113;41.882;12.530;2023-04-09T06:48:02;101224.72;;;11.68;62.72
54948;BME280;41113;41.882;12.530;2023-04-09T06:50:27;101229.50;;;11.64;63.19
54948;BME280;41113;41.882;12.530;2023-04-09T06:52:53;101240.06;;;11.88;62.58
54948;BME280;41113;41.882;12.530;2023-04-09T06:55:18;101237.19;;;11.80;62.86
54948;BME280;41113;41.882;12.530;2023-04-09T06:57:44;101230.69;;;12.03;63.08
54948;BME280;41113;41.882;12.530;2023-04-09T07:00:10;101241.56;;;12.23;61.61
54948;BME280;41113;41.882;12.530;2023-04-09T07:02:36;101238.25;;;12.40;61.59
54948;BME280;41113;41.882;12.530;2023-04-09T07:05:02;101240.00;;;11.99;61.81
54948;BME280;41113;41.882;12.530;2023-04-09T07:07:28;101244.34;;;12.11;62.15
54948;BME280;41113;41.882;12.530;2023-04-09T07:09:53;101235.13;;;11.93;62.81
54948;BME280;41113;41.882;12.530;2023-04-09T07:12:26;101248.06;;;11.99;62.29
54948;BME280;41113;41.882;12.530;2023-04-09T07:14:52;101238.59;;;12.26;62.13
54948;BME280;41113;41.882;12.530;2023-04-09T07:17:18;101238.69;;;12.45;61.52
54948;BME280;41113;41.882;12.530;2023-04-09T07:19:43;101234.22;;;12.65;61.16
54948;BME280;41113;41.882;12.530;2023-04-09T07:22:08;101235.22;;;12.64;60.71
54948;BME280;41113;41.882;12.530;2023-04-09T07:24:34;101246.72;;;12.35;61.55
54948;BME280;41113;41.882;12.530;2023-04-09T07:27:02;101241.47;;;12.34;61.60
54948;BME280;41113;41.882;12.530;2023-04-09T07:29:28;101245.78;;;12.15;61.79
54948;BME280;41113;41.882;12.530;2023-04-09T07:31:53;101250.00;;;12.08;62.26
54948;BME280;41113;41.882;12.530;2023-04-09T07:34:19;101256.53;;;12.15;62.99
54948;BME280;41113;41.882;12.530;2023-04-09T07:36:45;101265.66;;;12.24;62.97
54948;BME280;41113;41.882;12.530;2023-04-09T07:39:11;101264.16;;;12.10;62.64
54948;BME280;41113;41.882;12.530;2023-04-09T07:41:36;101266.84;;;11.90;63.53
54948;BME280;41113;41.882;12.530;2023-04-09T07:44:01;101264.09;;;11.80;63.71
54948;BME280;41113;41.882;12.530;2023-04-09T07:46:28;101272.75;;;11.83;64.67
54948;BME280;41113;41.882;12.530;2023-04-09T07:48:53;101278.03;;;11.74;65.24
54948;BME280;41113;41.882;12.530;2023-04-09T07:51:18;101269.00;;;11.96;64.21
54948;BME280;41113;41.882;12.530;2023-04-09T07:53:44;101267.31;;;12.15;63.62
54948;BME280;41113;41.882;12.530;2023-04-09T07:56:09;101264.00;;;12.33;63.54
54948;BME280;41113;41.882;12.530;2023-04-09T07:58:35;101273.19;;;12.51;63.25
54948;BME280;41113;41.882;12.530;2023-04-09T08:01:03;101267.53;;;12.54;63.41
54948;BME280;41113;41.882;12.530;2023-04-09T08:03:28;101272.28;;;12.71;61.80
54948;BME280;41113;41.882;12.530;2023-04-09T08:05:54;101275.25;;;12.68;61.25
54948;BME280;41113;41.882;12.530;2023-04-09T08:08:19;101273.19;;;12.91;60.37
54948;BME280;41113;41.882;12.530;2023-04-09T08:10:46;101286.97;;;12.98;60.23
54948;BME280;41113;41.882;12.530;2023-04-09T08:13:12;101284.75;;;13.03;60.32
54948;BME280;41113;41.882;12.530;2023-04-09T08:15:37;101277.03;;;12.98;59.90
54948;BME280;41113;41.882;12.530;2023-04-09T08:18:02;101281.22;;;13.12;60.31
54948;BME280;41113;41.882;12.530;2023-04-09T08:20:28;101285.03;;;13.09;60.53
54948;BME280;41113;41.882;12.530;2023-04-09T08:22:54;101282.91;;;13.13;60.70
54948;BME280;41113;41.882;12.530;2023-04-09T08:25:21;101294.16;;;13.18;60.87
54948;BME280;41113;41.882;12.530;2023-04-09T08:27:47;101294.41;;;13.15;61.25
54948;BME280;41113;41.882;12.530;2023-04-09T08:30:13;101297.47;;;13.31;61.28
54948;BME280;41113;41.882;12.530;2023-04-09T08:32:39;101293.94;;;13.41;60.72
54948;BME280;41113;41.882;12.530;2023-04-09T08:35:05;101296.06;;;13.37;60.76
54948;BME280;41113;41.882;12.530;2023-04-09T08:37:30;101290.53;;;13.38;60.58
54948;BME280;41113;41.882;12.530;2023-04-09T08:39:57;101289.41;;;13.60;60.76
54948;BME280;41113;41.882;12.530;2023-04-09T08:42:23;101294.53;;;13.92;59.51
54948;BME280;41113;41.882;12.530;2023-04-09T08:44:49;101275.13;;;14.26;58.54
54948;BME280;41113;41.882;12.530;2023-04-09T08:47:15;101281.25;;;14.47;57.33
54948;BME280;41113;41.882;12.530;2023-04-09T08:49:40;101281.59;;;14.72;56.73
54948;BME280;41113;41.882;12.530;2023-04-09T08:52:06;101279.06;;;14.60;56.83
54948;BME280;41113;41.882;12.530;2023-04-09T08:54:32;101265.66;;;14.69;55.74
54948;BME280;41113;41.882;12.530;2023-04-09T08:56:57;101275.53;;;14.50;54.21
54948;BME280;41113;41.882;12.530;2023-04-09T08:59:23;101269.38;;;14.68;53.97
54948;BME280;41113;41.882;12.530;2023-04-09T09:01:48;101274.78;;;14.68;52.74
54948;BME280;41113;41.882;12.530;2023-04-09T09:04:18;101262.25;;;14.67;52.35
54948;BME280;41113;41.882;12.530;2023-04-09T09:06:44;101278.75;;;14.73;51.84
54948;BME280;41113;41.882;12.530;2023-04-09T09:09:16;101263.56;;;14.90;52.18
54948;BME280;41113;41.882;12.530;2023-04-09T09:11:47;101266.66;;;14.95;50.71
54948;BME280;41113;41.882;12.530;2023-04-09T09:14:18;101270.63;;;15.01;51.09
54948;BME280;41113;41.882;12.530;2023-04-09T09:22:01;101263.06;;;15.04;48.53
54948;BME280;41113;41.882;12.530;2023-04-09T09:24:27;101263.47;;;15.09;46.97
54948;BME280;41113;41.882;12.530;2023-04-09T09:26:53;101263.81;;;15.42;49.18
54948;BME280;41113;41.882;12.530;2023-04-09T09:29:19;101255.84;;;15.40;48.29
54948;BME280;41113;41.882;12.530;2023-04-09T09:31:50;101261.81;;;15.44;48.41
54948;BME280;41113;41.882;12.530;2023-04-09T09:34:17;101256.78;;;15.49;47.85
54948;BME280;41113;41.882;12.530;2023-04-09T09:36:44;101267.75;;;15.30;47.90
54948;BME280;41113;41.882;12.530;2023-04-09T09:39:10;101260.66;;;15.46;48.95
54948;BME280;41113;41.882;12.530;2023-04-09T09:41:46;101266.44;;;15.61;48.45
54948;BME280;41113;41.882;12.530;2023-04-09T09:44:29;101261.41;;;15.66;45.17
54948;BME280;41113;41.882;12.530;2023-04-09T09:46:56;101257.84;;;15.56;45.70
54948;BME280;41113;41.882;12.530;2023-04-09T09:49:22;101263.28;;;15.56;45.60
54948;BME280;41113;41.882;12.530;2023-04-09T09:51:48;101260.03;;;15.52;44.70
54948;BME280;41113;41.882;12.530;2023-04-09T09:54:14;101258.44;;;15.77;46.45
54948;BME280;41113;41.882;12.530;2023-04-09T09:56:44;101247.28;;;15.80;44.91
54948;BME280;41113;41.882;12.530;2023-04-09T09:59:19;101252.06;;;15.86;46.23
54948;BME280;41113;41.882;12.530;2023-04-09T10:02:18;101242.44;;;16.10;45.84
54948;BME280;41113;41.882;12.530;2023-04-09T10:04:48;101247.22;;;16.16;45.99
54948;BME280;41113;41.882;12.530;2023-04-09T10:07:13;101251.84;;;15.98;45.93
54948;BME280;41113;41.882;12.530;2023-04-09T10:09:44;101247.75;;;15.94;45.46
54948;BME280;41113;41.882;12.530;2023-04-09T10:12:12;101242.72;;;15.99;46.51
54948;BME280;41113;41.882;12.530;2023-04-09T10:14:38;101241.59;;;16.09;46.13
54948;BME280;41113;41.882;12.530;2023-04-09T10:17:05;101239.72;;;16.10;46.48
54948;BME280;41113;41.882;12.530;2023-04-09T10:19:37;101241.06;;;16.06;44.90
54948;BME280;41113;41.882;12.530;2023-04-09T10:22:09;101243.88;;;16.22;46.58
54948;BME280;41113;41.882;12.530;2023-04-09T10:24:37;101238.84;;;16.27;43.65
54948;BME280;41113;41.882;12.530;2023-04-09T10:27:14;101247.88;;;16.36;43.24
54948;BME280;41113;41.882;12.530;2023-04-09T10:32:09;101238.84;;;16.27;42.59
54948;BME280;41113;41.882;12.530;2023-04-09T10:34:39;101246.69;;;16.38;42.10
54948;BME280;41113;41.882;12.530;2023-04-09T10:37:19;101241.56;;;16.27;41.12
54948;BME280;41113;41.882;12.530;2023-04-09T10:39:47;101232.09;;;16.31;42.29
54948;BME280;41113;41.882;12.530;2023-04-09T10:42:28;101240.22;;;16.31;42.90
54948;BME280;41113;41.882;12.530;2023-04-09T10:45:11;101229.78;;;16.44;42.35
54948;BME280;41113;41.882;12.530;2023-04-09T10:47:39;101232.84;;;16.49;43.03
54948;BME280;41113;41.882;12.530;2023-04-09T10:50:15;101226.38;;;16.42;43.23
54948;BME280;41113;41.882;12.530;2023-04-09T10:52:41;101227.25;;;16.69;43.96
54948;BME280;41113;41.882;12.530;2023-04-09T10:55:08;101233.22;;;16.80;43.89
54948;BME280;41113;41.882;12.530;2023-04-09T10:57:34;101233.69;;;16.76;41.96
54948;BME280;41113;41.882;12.530;2023-04-09T11:00:00;101236.00;;;16.63;42.91
54948;BME280;41113;41.882;12.530;2023-04-09T11:05:25;101222.78;;;16.08;41.47
54948;BME280;41113;41.882;12.530;2023-04-09T11:07:58;101227.25;;;16.17;42.82
54948;BME280;41113;41.882;12.530;2023-04-09T11:10:27;101224.56;;;16.25;43.56
54948;BME280;41113;41.882;12.530;2023-04-09T11:12:52;101228.44;;;16.48;43.90
54948;BME280;41113;41.882;12.530;2023-04-09T11:15:19;101235.31;;;16.61;43.58
54948;BME280;41113;41.882;12.530;2023-04-09T11:17:47;101225.22;;;16.71;42.47
54948;BME280;41113;41.882;12.530;2023-04-09T11:20:13;101225.91;;;16.81;42.95
54948;BME280;41113;41.882;12.530;2023-04-09T11:22:39;101229.00;;;16.86;41.28
54948;BME280;41113;41.882;12.530;2023-04-09T11:25:05;101223.97;;;16.99;42.22
54948;BME280;41113;41.882;12.530;2023-04-09T11:27:35;101227.88;;;17.05;41.23
54948;BME280;41113;41.882;12.530;2023-04-09T11:30:01;101229.06;;;17.02;42.37
54948;BME280;41113;41.882;12.530;2023-04-09T11:32:30;101227.50;;;16.92;42.69
54948;BME280;41113;41.882;12.530;2023-04-09T11:34:56;101228.28;;;16.76;41.89
54948;BME280;41113;41.882;12.530;2023-04-09T11:37:22;101228.59;;;16.47;40.56
54948;BME280;41113;41.882;12.530;2023-04-09T11:39:48;101222.44;;;16.63;41.22
54948;BME280;41113;41.882;12.530;2023-04-09T11:42:21;101213.69;;;16.77;41.12
54948;BME280;41113;41.882;12.530;2023-04-09T11:44:50;101221.53;;;16.88;41.04
54948;BME280;41113;41.882;12.530;2023-04-09T11:47:16;101216.84;;;16.98;40.55
54948;BME280;41113;41.882;12.530;2023-04-09T11:49:44;101209.22;;;17.10;40.17
54948;BME280;41113;41.882;12.530;2023-04-09T11:52:12;101201.44;;;17.15;39.77
54948;BME280;41113;41.882;12.530;2023-04-09T11:54:37;101200.91;;;17.11;41.12
54948;BME280;41113;41.882;12.530;2023-04-09T11:57:03;101203.22;;;16.90;40.50
54948;BME280;41113;41.882;12.530;2023-04-09T11:59:32;101204.91;;;16.83;41.02
54948;BME280;41113;41.882;12.530;2023-04-09T12:01:58;101199.66;;;16.90;40.72
54948;BME280;41113;41.882;12.530;2023-04-09T12:04:23;101192.25;;;17.00;40.44
54948;BME280;41113;41.882;12.530;2023-04-09T12:06:49;101181.91;;;17.11;40.20
54948;BME280;41113;41.882;12.530;2023-04-09T12:09:15;101193.34;;;17.31;40.76
54948;BME280;41113;41.882;12.530;2023-04-09T12:11:45;101190.09;;;17.44;39.95
54948;BME280;41113;41.882;12.530;2023-04-09T12:14:14;101182.81;;;17.36;39.84
54948;BME280;41113;41.882;12.530;2023-04-09T12:16:43;101177.22;;;17.38;40.40
54948;BME280;41113;41.882;12.530;2023-04-09T12:19:12;101176.88;;;17.49;40.58
54948;BME280;41113;41.882;12.530;2023-04-09T12:21:52;101176.91;;;17.57;38.64
54948;BME280;41113;41.882;12.530;2023-04-09T12:24:21;101168.41;;;17.60;40.61
54948;BME280;41113;41.882;12.530;2023-04-09T12:26:47;101174.34;;;17.64;40.07
54948;BME280;41113;41.882;12.530;2023-04-09T12:29:14;101162.28;;;17.50;40.46
54948;BME280;41113;41.882;12.530;2023-04-09T12:31:40;101173.47;;;17.47;39.63
54948;BME280;41113;41.882;12.530;2023-04-09T12:34:05;101177.22;;;17.46;39.71
54948;BME280;41113;41.882;12.530;2023-04-09T12:36:31;101167.91;;;17.57;39.45
54948;BME280;41113;41.882;12.530;2023-04-09T12:38:56;101160.56;;;17.49;38.85
54948;BME280;41113;41.882;12.530;2023-04-09T12:41:22;101169.91;;;17.38;38.29
54948;BME280;41113;41.882;12.530;2023-04-09T12:43:47;101163.31;;;17.57;39.49
54948;BME280;41113;41.882;12.530;2023-04-09T12:46:13;101162.97;;;17.77;39.45
54948;BME280;41113;41.882;12.530;2023-04-09T12:48:38;101161.94;;;17.86;39.13
54948;BME280;41113;41.882;12.530;2023-04-09T12:51:04;101162.63;;;17.88;37.91
54948;BME280;41113;41.882;12.530;2023-04-09T12:53:33;101159.59;;;17.75;36.98
54948;BME280;41113;41.882;12.530;2023-04-09T12:55:58;101167.56;;;17.76;38.40
54948;BME280;41113;41.882;12.530;2023-04-09T12:58:26;101172.84;;;17.69;38.78